Time;durP1;ratioP1;P1;durP2;ratioP2;P2;SDS_P1;SDS_P2;PMS_P1;PMS_P2;Temp;Humidity;BMP_temperature;BMP_pressure;BME280_temperature;BME280_humidity;BME280_pressure;Samples;Min_cycle;Max_cycle;Signal;HPM_P1;HPM_P2
2021/12/24 00:07:42;;;;;;;17.83;5.80;;;8.00;99.90;;;;;;20655773;28;20065;-44
2021/12/24 00:17:43;;;;;;;11.05;4.13;;;8.20;99.90;;;;;;20651153;28;20034;-45
2021/12/24 00:38:10;;;;;;;13.63;4.75;;;8.40;99.90;;;;;;20642609;28;21550;-44
2021/12/24 00:48:15;;;;;;;13.57;5.32;;;8.40;99.90;;;;;;20642613;28;20057;-44
2021/12/24 00:58:16;;;;;;;11.05;5.45;;;8.50;99.90;;;;;;20646103;28;20132;-44
2021/12/24 01:08:19;;;;;;;12.98;4.15;;;8.60;99.90;;;;;;20644816;28;20065;-44
2021/12/24 01:29:02;;;;;;;17.95;5.93;;;9.10;99.90;;;;;;20657505;28;20053;-44
2021/12/24 01:49:26;;;;;;;16.70;4.60;;;9.40;99.90;;;;;;20635885;28;20043;-44
2021/12/24 01:59:27;;;;;;;15.45;4.82;;;9.50;99.90;;;;;;20654804;28;20033;-44
2021/12/24 02:09:29;;;;;;;16.48;4.38;;;9.60;99.90;;;;;;20659687;28;20502;-44
2021/12/24 02:29:50;;;;;;;13.35;3.65;;;9.60;99.90;;;;;;20655073;28;20233;-44
2021/12/24 02:39:55;;;;;;;14.10;4.25;;;9.60;99.90;;;;;;20655627;28;20057;-44
2021/12/24 03:00:07;;;;;;;10.10;3.42;;;9.60;99.90;;;;;;20653967;28;20046;-44
2021/12/24 03:10:16;;;;;;;6.68;3.38;;;9.50;99.90;;;;;;20656972;28;20046;-45
2021/12/24 03:20:18;;;;;;;12.90;3.85;;;9.60;99.90;;;;;;20655761;28;20042;-45
2021/12/24 03:30:19;;;;;;;10.25;3.88;;;9.60;99.90;;;;;;20658031;28;20399;-45
2021/12/24 03:40:20;;;;;;;9.75;3.22;;;9.60;99.90;;;;;;20662840;28;20034;-45
2021/12/24 03:50:24;;;;;;;14.45;2.85;;;9.50;99.90;;;;;;20665438;28;20415;-44
2021/12/24 04:00:30;;;;;;;7.25;3.05;;;9.50;99.90;;;;;;20669842;28;20586;-44
2021/12/24 04:10:40;;;;;;;8.02;2.50;;;9.50;99.90;;;;;;20659252;28;20053;-45
2021/12/24 04:31:02;;;;;;;7.90;2.90;;;9.40;99.90;;;;;;20656374;28;20176;-44
2021/12/24 04:51:26;;;;;;;9.30;1.83;;;9.40;99.90;;;;;;20650774;28;20046;-44
2021/12/24 05:01:40;;;;;;;3.95;1.90;;;9.30;99.90;;;;;;20644472;28;20034;-45
2021/12/24 05:11:41;;;;;;;10.63;2.13;;;9.30;99.90;;;;;;20642787;28;20267;-44
2021/12/24 05:21:42;;;;;;;9.45;3.03;;;9.30;99.90;;;;;;20640745;28;20034;-44
2021/12/24 05:31:44;;;;;;;5.82;1.65;;;9.30;99.90;;;;;;20629380;28;20031;-44
2021/12/24 05:41:46;;;;;;;4.90;1.85;;;9.20;99.90;;;;;;20643615;28;20045;-44
2021/12/24 05:51:47;;;;;;;4.50;1.75;;;9.10;99.90;;;;;;20666319;28;20049;-44
2021/12/24 06:01:48;;;;;;;8.20;1.30;;;9.10;99.90;;;;;;20674257;28;20414;-44
2021/12/24 06:11:49;;;;;;;7.78;1.92;;;9.00;99.90;;;;;;20677082;28;20069;-44
2021/12/24 06:21:50;;;;;;;9.10;1.83;;;8.90;99.90;;;;;;20674242;28;20054;-44
2021/12/24 06:31:52;;;;;;;5.15;1.88;;;8.80;99.90;;;;;;20678125;28;20061;-44
2021/12/24 06:41:54;;;;;;;4.70;2.53;;;8.80;99.90;;;;;;20679402;28;20042;-44
2021/12/24 06:51:55;;;;;;;5.32;1.90;;;8.70;99.90;;;;;;20679090;28;20038;-44
2021/12/24 07:01:59;;;;;;;3.88;1.65;;;8.70;99.90;;;;;;20671261;28;20459;-44
2021/12/24 07:12:00;;;;;;;10.20;1.85;;;8.70;99.90;;;;;;20671039;28;20473;-44
2021/12/24 07:22:02;;;;;;;3.25;1.33;;;8.50;99.90;;;;;;20667146;28;20092;-44
2021/12/24 07:32:04;;;;;;;6.78;1.52;;;8.50;99.90;;;;;;20656684;28;20038;-44
2021/12/24 07:42:06;;;;;;;8.05;1.52;;;8.60;99.90;;;;;;20650858;28;20042;-44
2021/12/24 08:02:14;;;;;;;6.18;1.15;;;8.60;99.90;;;;;;20645011;28;20042;-44
2021/12/24 08:12:16;;;;;;;7.03;1.67;;;8.50;99.90;;;;;;20647826;28;20422;-44
2021/12/24 08:22:17;;;;;;;7.80;1.63;;;8.50;99.90;;;;;;20649590;28;20041;-44
2021/12/24 08:32:18;;;;;;;6.15;1.35;;;8.40;99.90;;;;;;20651557;28;20224;-44
2021/12/24 08:42:19;;;;;;;7.60;1.33;;;8.50;99.90;;;;;;20634093;28;20038;-45
2021/12/24 08:52:20;;;;;;;15.13;3.30;;;8.50;99.90;;;;;;20660277;28;20427;-44
2021/12/24 09:02:21;;;;;;;5.18;1.40;;;8.70;99.90;;;;;;20636985;28;20394;-44
2021/12/24 09:12:23;;;;;;;14.27;2.95;;;8.80;99.90;;;;;;20639995;28;20058;-44
2021/12/24 09:22:30;;;;;;;3.03;1.48;;;8.80;99.90;;;;;;20649297;28;20652;-44
2021/12/24 09:32:32;;;;;;;10.30;2.20;;;8.90;99.90;;;;;;20648623;28;21539;-45
2021/12/24 09:42:34;;;;;;;10.75;1.17;;;9.10;99.90;;;;;;20633496;28;20046;-44
2021/12/24 09:52:39;;;;;;;12.95;1.92;;;9.20;99.90;;;;;;20638129;28;20042;-44
2021/12/24 10:02:46;;;;;;;9.10;1.60;;;9.20;99.90;;;;;;20641703;28;20038;-44
2021/12/24 10:12:47;;;;;;;7.22;2.13;;;9.20;99.90;;;;;;20640961;28;20035;-45
2021/12/24 10:22:54;;;;;;;9.73;1.40;;;9.20;99.90;;;;;;20634091;28;20250;-45
2021/12/24 10:32:57;;;;;;;3.30;1.38;;;9.20;99.90;;;;;;20640361;28;21793;-44
2021/12/24 10:42:58;;;;;;;3.60;1.30;;;9.20;99.90;;;;;;20646596;28;20402;-44
2021/12/24 10:53:15;;;;;;;4.40;1.50;;;9.30;99.90;;;;;;20643793;28;20050;-44
2021/12/24 11:03:22;;;;;;;3.60;1.40;;;9.30;99.90;;;;;;20639353;28;20242;-44
2021/12/24 11:13:29;;;;;;;4.47;1.40;;;9.40;99.90;;;;;;20658136;28;20466;-44
2021/12/24 11:23:33;;;;;;;8.70;2.07;;;9.30;99.90;;;;;;20644066;28;20543;-44
2021/12/24 11:33:38;;;;;;;9.77;1.85;;;9.40;99.90;;;;;;20633824;28;20043;-44
2021/12/24 11:43:45;;;;;;;7.15;1.27;;;9.30;99.90;;;;;;20654653;28;20041;-44
2021/12/24 11:53:47;;;;;;;;;;;9.30;99.90;;;;;;20623193;28;20042;-44
2021/12/24 12:03:52;;;;;;;8.13;1.52;;;9.30;99.90;;;;;;20652307;28;20270;-44
2021/12/24 12:13:53;;;;;;;9.15;1.77;;;9.30;99.90;;;;;;20653262;28;20083;-44
2021/12/24 12:34:02;;;;;;;10.88;1.77;;;9.20;99.90;;;;;;20654049;28;20347;-44
2021/12/24 12:44:10;;;;;;;4.93;1.08;;;9.20;99.90;;;;;;20617304;28;20438;-44
2021/12/24 12:54:39;;;;;;;11.93;1.50;;;9.00;99.90;;;;;;20642444;28;20451;-45
2021/12/24 13:05:12;;;;;;;6.37;1.20;;;9.00;99.90;;;;;;20613095;28;20052;-45
2021/12/24 13:15:16;;;;;;;3.97;1.08;;;9.00;99.90;;;;;;20646955;28;20360;-45
2021/12/24 13:25:17;;;;;;;4.53;1.05;;;9.00;99.90;;;;;;20636569;28;20038;-45
2021/12/24 13:35:25;;;;;;;2.67;0.90;;;9.00;99.90;;;;;;20646300;28;20038;-45
2021/12/24 13:45:27;;;;;;;;;;;9.00;99.90;;;;;;20646950;28;20294;-45
2021/12/24 13:55:31;;;;;;;4.30;0.88;;;9.00;99.90;;;;;;20667806;28;19921;-45
2021/12/24 14:05:32;;;;;;;7.13;0.65;;;8.90;99.90;;;;;;20658980;28;20046;-45
2021/12/24 14:15:56;;;;;;;2.53;0.75;;;8.90;99.90;;;;;;20676598;28;20068;-46
2021/12/24 14:26:00;;;;;;;3.45;1.25;;;8.80;99.90;;;;;;20669165;28;20038;-45
2021/12/24 14:36:02;;;;;;;2.50;1.20;;;8.80;99.90;;;;;;20673112;28;20050;-45
2021/12/24 14:46:07;;;;;;;2.63;0.77;;;8.70;99.90;;;;;;20678671;28;20523;-44
2021/12/24 14:56:16;;;;;;;2.08;0.98;;;8.70;99.90;;;;;;20673758;28;20042;-44
2021/12/24 15:06:24;;;;;;;2.67;1.25;;;8.70;99.90;;;;;;20670817;28;20042;-45
2021/12/24 15:16:31;;;;;;;0.85;0.30;;;8.60;99.90;;;;;;20664762;28;20073;-46
2021/12/24 15:26:33;;;;;;;5.63;2.42;;;8.40;99.90;;;;;;20658524;28;20161;-45
2021/12/24 15:36:34;;;;;;;4.85;2.38;;;8.00;99.90;;;;;;20635295;28;20038;-45
2021/12/24 15:46:35;;;;;;;14.98;5.63;;;7.70;99.90;;;;;;20651330;28;20402;-45
2021/12/24 15:56:37;;;;;;;6.32;2.92;;;7.60;99.90;;;;;;20646893;28;20096;-45
2021/12/24 16:06:38;;;;;;;2.97;1.35;;;7.50;99.90;;;;;;20642282;28;20038;-44
2021/12/24 16:16:44;;;;;;;2.78;1.15;;;7.50;99.90;;;;;;20645793;28;20042;-44
2021/12/24 16:26:45;;;;;;;3.50;1.13;;;7.40;99.90;;;;;;20643897;28;20057;-44
2021/12/24 16:36:47;;;;;;;4.55;1.17;;;7.40;99.90;;;;;;20646121;28;20045;-44
2021/12/24 16:46:48;;;;;;;3.95;1.35;;;7.40;99.90;;;;;;20649984;28;20143;-44
2021/12/24 16:56:49;;;;;;;6.88;2.10;;;7.30;99.90;;;;;;20643122;28;20566;-44
2021/12/24 17:06:51;;;;;;;4.80;2.25;;;7.30;99.90;;;;;;20650221;28;20050;-44
2021/12/24 17:16:52;;;;;;;4.43;1.65;;;7.30;99.90;;;;;;20654996;28;20050;-44
2021/12/24 17:26:54;;;;;;;5.40;2.45;;;7.20;99.90;;;;;;20657637;28;20042;-44
2021/12/24 17:36:57;;;;;;;4.20;2.05;;;7.20;99.90;;;;;;20660126;28;20045;-44
2021/12/24 17:46:58;;;;;;;4.25;2.50;;;7.10;99.90;;;;;;20656231;28;20546;-44
2021/12/24 17:56:59;;;;;;;4.78;2.08;;;7.10;99.90;;;;;;20654095;28;20631;-44
2021/12/24 18:07:02;;;;;;;5.38;2.17;;;7.10;99.90;;;;;;20652286;28;20045;-44
2021/12/24 18:17:04;;;;;;;13.68;4.65;;;7.10;99.90;;;;;;20652863;28;20540;-45
2021/12/24 18:27:06;;;;;;;7.90;3.33;;;7.10;99.90;;;;;;20652154;28;20046;-45
2021/12/24 18:37:07;;;;;;;5.30;2.33;;;7.00;99.90;;;;;;20651482;28;20149;-45
2021/12/24 18:47:10;;;;;;;7.05;3.30;;;7.00;99.90;;;;;;20649317;28;20040;-45
2021/12/24 18:57:13;;;;;;;7.28;3.40;;;6.90;99.90;;;;;;20652830;28;20034;-44
2021/12/24 19:07:14;;;;;;;6.20;2.95;;;6.90;99.90;;;;;;20663026;28;20053;-44
2021/12/24 19:17:15;;;;;;;7.72;3.63;;;6.80;99.90;;;;;;20656669;28;20113;-44
2021/12/24 19:27:17;;;;;;;9.70;4.13;;;6.70;99.90;;;;;;20659680;28;20046;-44
2021/12/24 19:37:18;;;;;;;7.95;3.70;;;6.70;99.90;;;;;;20656444;28;21587;-44
2021/12/24 19:47:19;;;;;;;18.25;7.00;;;6.70;99.90;;;;;;20669988;28;20045;-44
2021/12/24 19:57:20;;;;;;;9.95;5.57;;;6.60;99.90;;;;;;20692475;28;20125;-45
2021/12/24 20:07:22;;;;;;;7.15;3.58;;;6.70;99.90;;;;;;20688619;28;20043;-44
2021/12/24 20:17:23;;;;;;;10.70;4.45;;;6.60;99.90;;;;;;20679178;28;20402;-44
2021/12/24 20:27:24;;;;;;;8.38;4.35;;;6.60;99.90;;;;;;20674376;28;20042;-44
2021/12/24 20:37:27;;;;;;;9.00;3.85;;;6.60;99.90;;;;;;20671086;28;20042;-44
2021/12/24 20:47:28;;;;;;;6.85;3.28;;;6.60;99.90;;;;;;20671453;28;20034;-44
2021/12/24 20:57:30;;;;;;;8.75;3.58;;;6.60;99.90;;;;;;20672665;28;20309;-44
2021/12/24 21:07:31;;;;;;;5.10;2.20;;;6.60;99.90;;;;;;20662494;28;20050;-44
2021/12/24 21:17:32;;;;;;;5.97;2.78;;;6.50;99.90;;;;;;20667455;28;20042;-44
2021/12/24 21:27:33;;;;;;;9.20;4.07;;;6.40;99.90;;;;;;20664452;28;21601;-45
2021/12/24 21:37:35;;;;;;;8.07;3.25;;;6.40;99.90;;;;;;20693909;28;20547;-45
2021/12/24 21:47:38;;;;;;;6.70;3.05;;;6.40;99.90;;;;;;20686481;28;20129;-44
2021/12/24 21:57:40;;;;;;;7.70;2.83;;;6.30;99.90;;;;;;20686121;28;20030;-45
2021/12/24 22:18:05;;;;;;;6.53;2.38;;;6.30;99.90;;;;;;20681341;28;20219;-44
2021/12/24 22:28:06;;;;;;;6.82;1.98;;;6.20;99.90;;;;;;20687921;28;20069;-45
2021/12/24 22:38:08;;;;;;;5.43;2.40;;;6.20;99.90;;;;;;20694848;28;20394;-45
2021/12/24 22:48:11;;;;;;;6.45;2.58;;;6.10;99.90;;;;;;20692930;28;20045;-45
2021/12/24 22:58:15;;;;;;;8.07;3.25;;;6.00;99.90;;;;;;20698693;28;20046;-45
2021/12/24 23:08:17;;;;;;;11.00;3.38;;;5.90;99.90;;;;;;20694662;28;20053;-45
2021/12/24 23:18:22;;;;;;;10.25;3.38;;;5.70;99.90;;;;;;20687551;28;20050;-44
2021/12/24 23:28:23;;;;;;;9.20;3.72;;;5.50;99.90;;;;;;20693196;28;20057;-44
2021/12/24 23:38:24;;;;;;;8.25;3.13;;;5.30;99.90;;;;;;20690816;28;20630;-44
2021/12/24 23:48:27;;;;;;;11.63;3.45;;;5.30;99.90;;;;;;20687937;28;20045;-44
2021/12/24 23:58:31;;;;;;;7.47;2.33;;;5.20;99.90;;;;;;20686347;28;20052;-44
